CHH7959 ZSHC-VTBS
Flight info
| Callsign | CHH7959 |
|---|---|
| Flight time | 3h 45m |
| Altitude | 36100 |
| Route | ELNEX8D ELNEX A599 PLT W19 MASGU/K0841S1160 W19 NOMAR W18 NLG W23 ZUH R200 BIGRO G221 SAMAS A202 ASSAD/K0832F380 A202 VILAO/N0448F380 A202 RAMEI W42 PAKRI Y13 RUKSA EASTE1C |
| Aircraft | B738/M-SDE2E3FGHIRWXY/LB1 |
Departure
| Time | 2026-05-05 12:15 |
|---|---|
| Airport | Hangzhou Xiaoshan International Airport (ZSHC) |
Arrival
| Time | 2026-05-05 16:00 |
|---|---|
| Airport | Suvarnabhumi Airport (VTBS) |
| Time | Latitude | Longitude | Altitude | Speed | Heading |
|---|---|---|---|---|---|
| 2026-05-05 11:53 | 30.24315 | 120.43028 | 31 ft | 0 kts | 153° |
| 2026-05-05 12:06 | 30.24321 | 120.43024 | 31 ft | 4 kts | 152° |
| 2026-05-05 12:06 | 30.24344 | 120.43009 | 31 ft | 4 kts | 152° |
| 2026-05-05 12:06 | 30.24369 | 120.42996 | 29 ft | 4 kts | 160° |
| 2026-05-05 12:07 | 30.24395 | 120.42988 | 31 ft | 4 kts | 168° |
| 2026-05-05 12:07 | 30.24406 | 120.42985 | 31 ft | 1 kts | 168° |
| 2026-05-05 12:07 | 30.24407 | 120.42985 | 31 ft | 0 kts | 168° |
| 2026-05-05 12:09 | 30.24397 | 120.42985 | 29 ft | 4 kts | 180° |
| 2026-05-05 12:09 | 30.24372 | 120.42946 | 30 ft | 9 kts | 249° |
| 2026-05-05 12:09 | 30.24348 | 120.42881 | 31 ft | 9 kts | 247° |
| 2026-05-05 12:10 | 30.24316 | 120.42821 | 30 ft | 9 kts | 240° |
| 2026-05-05 12:10 | 30.24283 | 120.42748 | 30 ft | 12 kts | 242° |
| 2026-05-05 12:10 | 30.24239 | 120.42651 | 29 ft | 16 kts | 242° |
| 2026-05-05 12:10 | 30.24182 | 120.42522 | 30 ft | 21 kts | 243° |
| 2026-05-05 12:11 | 30.24110 | 120.42361 | 31 ft | 25 kts | 243° |
| 2026-05-05 12:11 | 30.24025 | 120.42172 | 31 ft | 28 kts | 242° |
| 2026-05-05 12:11 | 30.23937 | 120.41975 | 31 ft | 27 kts | 243° |
| 2026-05-05 12:11 | 30.23867 | 120.41788 | 30 ft | 22 kts | 284° |
| 2026-05-05 12:12 | 30.23906 | 120.41683 | 31 ft | 14 kts | 247° |
| 2026-05-05 12:12 | 30.23861 | 120.41580 | 30 ft | 16 kts | 243° |
| 2026-05-05 12:12 | 30.23797 | 120.41437 | 30 ft | 23 kts | 243° |
| 2026-05-05 12:12 | 30.23716 | 120.41254 | 31 ft | 28 kts | 243° |
| 2026-05-05 12:13 | 30.23627 | 120.41053 | 31 ft | 24 kts | 243° |
| 2026-05-05 12:13 | 30.23646 | 120.40946 | 30 ft | 13 kts | 333° |
| 2026-05-05 12:13 | 30.23725 | 120.40901 | 32 ft | 12 kts | 334° |
| 2026-05-05 12:13 | 30.23803 | 120.40858 | 31 ft | 13 kts | 335° |
| 2026-05-05 12:14 | 30.23844 | 120.40883 | 33 ft | 0 kts | 64° |
| 2026-05-05 12:14 | 30.23850 | 120.40896 | 33 ft | 15 kts | 63° |
| 2026-05-05 12:15 | 30.24014 | 120.41269 | 31 ft | 88 kts | 63° |
| 2026-05-05 12:15 | 30.24393 | 120.42124 | 32 ft | 149 kts | 63° |
| 2026-05-05 12:15 | 30.24929 | 120.43299 | 407 ft | 171 kts | 60° |
| 2026-05-05 12:15 | 30.25518 | 120.44523 | 968 ft | 185 kts | 66° |
| 2026-05-05 12:16 | 30.26132 | 120.45870 | 1644 ft | 192 kts | 69° |
| 2026-05-05 12:16 | 30.26725 | 120.47242 | 2452 ft | 189 kts | 68° |
| 2026-05-05 12:16 | 30.27287 | 120.48627 | 3141 ft | 195 kts | 69° |
| 2026-05-05 12:16 | 30.27884 | 120.50114 | 3610 ft | 211 kts | 69° |
| 2026-05-05 12:17 | 30.28538 | 120.51666 | 4071 ft | 220 kts | 64° |
| 2026-05-05 12:17 | 30.29269 | 120.53251 | 4573 ft | 226 kts | 64° |
| 2026-05-05 12:17 | 30.30004 | 120.54860 | 5153 ft | 227 kts | 63° |
| 2026-05-05 12:17 | 30.30810 | 120.56468 | 5632 ft | 234 kts | 47° |
| 2026-05-05 12:18 | 30.32175 | 120.57355 | 6273 ft | 228 kts | 5° |
| 2026-05-05 12:18 | 30.33703 | 120.57058 | 6769 ft | 226 kts | 329° |
| 2026-05-05 12:18 | 30.34898 | 120.55894 | 7232 ft | 227 kts | 302° |
| 2026-05-05 12:18 | 30.35478 | 120.54217 | 7748 ft | 225 kts | 275° |
| 2026-05-05 12:19 | 30.35426 | 120.52387 | 7853 ft | 230 kts | 261° |
| 2026-05-05 12:19 | 30.35199 | 120.50556 | 7873 ft | 230 kts | 261° |
| 2026-05-05 12:19 | 30.34972 | 120.48716 | 7858 ft | 233 kts | 261° |
| 2026-05-05 12:19 | 30.34657 | 120.46885 | 7874 ft | 240 kts | 248° |
| 2026-05-05 12:20 | 30.33873 | 120.45050 | 7911 ft | 269 kts | 242° |
| 2026-05-05 12:20 | 30.32972 | 120.43097 | 7884 ft | 277 kts | 242° |
| 2026-05-05 12:20 | 30.32071 | 120.41119 | 7879 ft | 279 kts | 242° |
| 2026-05-05 12:20 | 30.31175 | 120.39132 | 7889 ft | 278 kts | 242° |
| 2026-05-05 12:21 | 30.30282 | 120.37138 | 7880 ft | 278 kts | 243° |
| 2026-05-05 12:21 | 30.29396 | 120.35153 | 7881 ft | 278 kts | 243° |
| 2026-05-05 12:21 | 30.28513 | 120.33166 | 7876 ft | 278 kts | 243° |
| 2026-05-05 12:21 | 30.27631 | 120.31178 | 7883 ft | 277 kts | 243° |
| 2026-05-05 12:22 | 30.26750 | 120.29197 | 7870 ft | 277 kts | 243° |
| 2026-05-05 12:22 | 30.25869 | 120.27217 | 7872 ft | 277 kts | 243° |
| 2026-05-05 12:22 | 30.24987 | 120.25234 | 8006 ft | 278 kts | 243° |
| 2026-05-05 12:22 | 30.24096 | 120.23230 | 8659 ft | 281 kts | 243° |
| 2026-05-05 12:23 | 30.23199 | 120.21212 | 9385 ft | 285 kts | 243° |
| 2026-05-05 12:23 | 30.22289 | 120.19166 | 9776 ft | 286 kts | 243° |
| 2026-05-05 12:23 | 30.21374 | 120.17114 | 9827 ft | 287 kts | 243° |
| 2026-05-05 12:23 | 30.20454 | 120.15048 | 9843 ft | 290 kts | 243° |
| 2026-05-05 12:24 | 30.19519 | 120.12955 | 10139 ft | 296 kts | 243° |
| 2026-05-05 12:24 | 30.18547 | 120.10787 | 10327 ft | 318 kts | 243° |
| 2026-05-05 12:24 | 30.17484 | 120.08412 | 10547 ft | 338 kts | 243° |
| 2026-05-05 12:24 | 30.16390 | 120.05968 | 11043 ft | 345 kts | 243° |
| 2026-05-05 12:25 | 30.15294 | 120.03522 | 11682 ft | 349 kts | 243° |
| 2026-05-05 12:25 | 30.14172 | 120.01021 | 12339 ft | 352 kts | 243° |
| 2026-05-05 12:25 | 30.13041 | 119.98500 | 13003 ft | 355 kts | 243° |
| 2026-05-05 12:25 | 30.11899 | 119.95955 | 13613 ft | 358 kts | 243° |
| 2026-05-05 12:26 | 30.10740 | 119.93374 | 13768 ft | 364 kts | 243° |
| 2026-05-05 12:26 | 30.09576 | 119.90787 | 13781 ft | 362 kts | 243° |
| 2026-05-05 12:26 | 30.08416 | 119.88210 | 13785 ft | 361 kts | 243° |
| 2026-05-05 12:26 | 30.07257 | 119.85633 | 13791 ft | 362 kts | 243° |
| 2026-05-05 12:27 | 30.06097 | 119.83060 | 13801 ft | 362 kts | 243° |
| 2026-05-05 12:27 | 30.04928 | 119.80480 | 13797 ft | 363 kts | 242° |
| 2026-05-05 12:27 | 30.03467 | 119.78107 | 13789 ft | 366 kts | 228° |
| 2026-05-05 12:27 | 30.01539 | 119.76173 | 14031 ft | 370 kts | 216° |
| 2026-05-05 12:28 | 29.99293 | 119.74682 | 14663 ft | 373 kts | 209° |
| 2026-05-05 12:28 | 29.96974 | 119.73313 | 15380 ft | 375 kts | 208° |
| 2026-05-05 12:28 | 29.94639 | 119.71945 | 16039 ft | 378 kts | 208° |
| 2026-05-05 12:28 | 29.92291 | 119.70554 | 16673 ft | 382 kts | 209° |
| 2026-05-05 12:29 | 29.89917 | 119.69128 | 17305 ft | 386 kts | 209° |
| 2026-05-05 12:29 | 29.87525 | 119.67683 | 17915 ft | 390 kts | 210° |
| 2026-05-05 12:29 | 29.85150 | 119.66219 | 18477 ft | 393 kts | 212° |
| 2026-05-05 12:29 | 29.82836 | 119.64534 | 19036 ft | 394 kts | 216° |
| 2026-05-05 12:30 | 29.80579 | 119.62738 | 19646 ft | 395 kts | 217° |
| 2026-05-05 12:30 | 29.78316 | 119.60906 | 20193 ft | 399 kts | 217° |
| 2026-05-05 12:30 | 29.76032 | 119.59068 | 20731 ft | 403 kts | 217° |
| 2026-05-05 12:30 | 29.73720 | 119.57231 | 21270 ft | 405 kts | 217° |
| 2026-05-05 12:31 | 29.71380 | 119.55390 | 21797 ft | 409 kts | 217° |
| 2026-05-05 12:31 | 29.69012 | 119.53537 | 22284 ft | 413 kts | 216° |
| 2026-05-05 12:31 | 29.66623 | 119.51672 | 22679 ft | 418 kts | 216° |
| 2026-05-05 12:31 | 29.64214 | 119.49779 | 23212 ft | 420 kts | 218° |
| 2026-05-05 12:32 | 29.61994 | 119.47618 | 23686 ft | 419 kts | 229° |
| 2026-05-05 12:32 | 29.60057 | 119.45120 | 24155 ft | 418 kts | 232° |
| 2026-05-05 12:32 | 29.58155 | 119.42588 | 24642 ft | 418 kts | 231° |
| 2026-05-05 12:32 | 29.56233 | 119.40075 | 25091 ft | 419 kts | 231° |
| 2026-05-05 12:33 | 29.54288 | 119.37574 | 25529 ft | 420 kts | 231° |
| 2026-05-05 12:33 | 29.52326 | 119.35079 | 25930 ft | 422 kts | 230° |
| 2026-05-05 12:33 | 29.50380 | 119.32617 | 26341 ft | 423 kts | 230° |
| 2026-05-05 12:33 | 29.48397 | 119.30109 | 26766 ft | 424 kts | 230° |
| 2026-05-05 12:34 | 29.46415 | 119.27604 | 27168 ft | 425 kts | 230° |
| 2026-05-05 12:34 | 29.44429 | 119.25089 | 27555 ft | 426 kts | 230° |
| 2026-05-05 12:34 | 29.42427 | 119.22555 | 27822 ft | 430 kts | 230° |
| 2026-05-05 12:34 | 29.40413 | 119.20005 | 28235 ft | 431 kts | 230° |
| 2026-05-05 12:35 | 29.38398 | 119.17457 | 28656 ft | 431 kts | 230° |
| 2026-05-05 12:35 | 29.36384 | 119.14914 | 29041 ft | 431 kts | 230° |
| 2026-05-05 12:35 | 29.34362 | 119.12357 | 29369 ft | 433 kts | 231° |
| 2026-05-05 12:35 | 29.32337 | 119.09792 | 29666 ft | 435 kts | 231° |
| 2026-05-05 12:36 | 29.30303 | 119.07216 | 30014 ft | 436 kts | 231° |
| 2026-05-05 12:36 | 29.28266 | 119.04638 | 30369 ft | 435 kts | 231° |
| 2026-05-05 12:36 | 29.26268 | 119.02112 | 30760 ft | 433 kts | 231° |
| 2026-05-05 12:36 | 29.24246 | 118.99557 | 31139 ft | 432 kts | 231° |
| 2026-05-05 12:37 | 29.22228 | 118.97013 | 31492 ft | 430 kts | 231° |
| 2026-05-05 12:37 | 29.20216 | 118.94486 | 31856 ft | 429 kts | 231° |
| 2026-05-05 12:37 | 29.18204 | 118.91961 | 32124 ft | 430 kts | 231° |
| 2026-05-05 12:37 | 29.16177 | 118.89419 | 32422 ft | 430 kts | 231° |
| 2026-05-05 12:38 | 29.14164 | 118.86897 | 32765 ft | 429 kts | 231° |
| 2026-05-05 12:38 | 29.12155 | 118.84381 | 33003 ft | 429 kts | 232° |
| 2026-05-05 12:38 | 29.10142 | 118.81856 | 33310 ft | 428 kts | 232° |
| 2026-05-05 12:38 | 29.08152 | 118.79356 | 33787 ft | 423 kts | 232° |
| 2026-05-05 12:39 | 29.06184 | 118.76914 | 34021 ft | 424 kts | 231° |
| 2026-05-05 12:39 | 29.04175 | 118.74417 | 34078 ft | 427 kts | 232° |
| 2026-05-05 12:39 | 29.02179 | 118.71910 | 34373 ft | 425 kts | 232° |
| 2026-05-05 12:39 | 29.00195 | 118.69424 | 34716 ft | 422 kts | 232° |
| 2026-05-05 12:40 | 28.98217 | 118.66952 | 34956 ft | 421 kts | 232° |
| 2026-05-05 12:40 | 28.96232 | 118.64472 | 35087 ft | 425 kts | 232° |
| 2026-05-05 12:40 | 28.94234 | 118.61976 | 35202 ft | 427 kts | 232° |
| 2026-05-05 12:40 | 28.92231 | 118.59479 | 35459 ft | 425 kts | 232° |
| 2026-05-05 12:41 | 28.90235 | 118.56993 | 35736 ft | 424 kts | 232° |
| 2026-05-05 12:41 | 28.88244 | 118.54517 | 35949 ft | 424 kts | 232° |
| 2026-05-05 12:41 | 28.86245 | 118.52035 | 36084 ft | 426 kts | 232° |
| 2026-05-05 12:41 | 28.84242 | 118.49538 | 36031 ft | 428 kts | 233° |
| 2026-05-05 12:42 | 28.80217 | 118.44569 | 36071 ft | 426 kts | 231° |
| 2026-05-05 12:42 | 28.76226 | 118.39650 | 36096 ft | 420 kts | 232° |
| 2026-05-05 12:43 | 28.72264 | 118.34701 | 36190 ft | 426 kts | 232° |
| 2026-05-05 12:43 | 28.68934 | 118.30559 | 36517 ft | 426 kts | 232° |
| 2026-05-05 12:44 | 28.66929 | 118.28079 | 36820 ft | 423 kts | 232° |
| 2026-05-05 12:44 | 28.64939 | 118.25621 | 37009 ft | 423 kts | 232° |
| 2026-05-05 12:44 | 28.62946 | 118.23159 | 37189 ft | 422 kts | 232° |
| 2026-05-05 12:44 | 28.60957 | 118.20703 | 37410 ft | 422 kts | 232° |
| 2026-05-05 12:45 | 28.58966 | 118.18247 | 37579 ft | 422 kts | 232° |
| 2026-05-05 12:45 | 28.56974 | 118.15790 | 37735 ft | 422 kts | 232° |
| 2026-05-05 12:45 | 28.54342 | 118.12546 | 37964 ft | 422 kts | 232° |
| 2026-05-05 12:45 | 28.52996 | 118.10889 | 37993 ft | 423 kts | 232° |
| 2026-05-05 12:46 | 28.49022 | 118.05998 | 37985 ft | 424 kts | 232° |
| 2026-05-05 12:46 | 28.45340 | 118.01470 | 37998 ft | 424 kts | 232° |
| 2026-05-05 12:47 | 28.41332 | 117.96554 | 37998 ft | 423 kts | 232° |
| 2026-05-05 12:47 | 28.37260 | 117.91716 | 38002 ft | 423 kts | 231° |
| 2026-05-05 12:48 | 28.33164 | 117.86915 | 38016 ft | 423 kts | 231° |
| 2026-05-05 12:48 | 28.29083 | 117.82122 | 38008 ft | 422 kts | 231° |
| 2026-05-05 12:49 | 28.25002 | 117.77319 | 38011 ft | 422 kts | 231° |
| 2026-05-05 12:49 | 28.20925 | 117.72524 | 38018 ft | 422 kts | 231° |
| 2026-05-05 12:50 | 28.16848 | 117.67735 | 38030 ft | 421 kts | 231° |
| 2026-05-05 12:50 | 28.12761 | 117.62963 | 38024 ft | 422 kts | 231° |
| 2026-05-05 12:51 | 28.08687 | 117.58168 | 38021 ft | 422 kts | 231° |
| 2026-05-05 12:51 | 28.04600 | 117.53380 | 38018 ft | 424 kts | 231° |
| 2026-05-05 12:52 | 28.00487 | 117.48694 | 38043 ft | 419 kts | 230° |
| 2026-05-05 12:52 | 27.96432 | 117.43955 | 38038 ft | 420 kts | 231° |
| 2026-05-05 12:53 | 27.92344 | 117.39192 | 38033 ft | 423 kts | 232° |
| 2026-05-05 12:53 | 27.88280 | 117.34379 | 38041 ft | 424 kts | 231° |
| 2026-05-05 12:54 | 27.82118 | 117.27155 | 38039 ft | 427 kts | 231° |
| 2026-05-05 12:55 | 27.77903 | 117.22379 | 38016 ft | 427 kts | 232° |
| 2026-05-05 12:55 | 27.73814 | 117.17538 | 38019 ft | 423 kts | 232° |
| 2026-05-05 12:56 | 27.69763 | 117.12784 | 38022 ft | 420 kts | 232° |
| 2026-05-05 12:56 | 27.65691 | 117.08049 | 38031 ft | 420 kts | 232° |
| 2026-05-05 12:57 | 27.61565 | 117.03366 | 37987 ft | 422 kts | 232° |
| 2026-05-05 12:57 | 27.57533 | 116.98596 | 38002 ft | 420 kts | 232° |
| 2026-05-05 12:58 | 27.53469 | 116.93910 | 38011 ft | 420 kts | 232° |
| 2026-05-05 12:58 | 27.49392 | 116.89183 | 38023 ft | 421 kts | 232° |
| 2026-05-05 12:59 | 27.45329 | 116.84431 | 38014 ft | 421 kts | 233° |
| 2026-05-05 12:59 | 27.41258 | 116.79654 | 38016 ft | 422 kts | 233° |
| 2026-05-05 13:00 | 27.35147 | 116.72514 | 38012 ft | 422 kts | 233° |
| 2026-05-05 13:01 | 27.27058 | 116.62961 | 38062 ft | 420 kts | 233° |
| 2026-05-05 13:01 | 27.22930 | 116.58267 | 38016 ft | 422 kts | 232° |
| 2026-05-05 13:02 | 27.18898 | 116.53550 | 38016 ft | 421 kts | 234° |
| 2026-05-05 13:02 | 27.14930 | 116.48726 | 37998 ft | 421 kts | 234° |
| 2026-05-05 13:03 | 27.10965 | 116.43900 | 38020 ft | 420 kts | 234° |
| 2026-05-05 13:03 | 27.06989 | 116.39084 | 38022 ft | 421 kts | 234° |
| 2026-05-05 13:04 | 27.03004 | 116.34270 | 38025 ft | 421 kts | 234° |
| 2026-05-05 13:04 | 26.99013 | 116.29453 | 38023 ft | 422 kts | 234° |
| 2026-05-05 13:05 | 26.94977 | 116.24669 | 37995 ft | 422 kts | 235° |
| 2026-05-05 13:05 | 26.91024 | 116.19821 | 38015 ft | 421 kts | 235° |
| 2026-05-05 13:06 | 26.87081 | 116.14992 | 38034 ft | 420 kts | 235° |
| 2026-05-05 13:06 | 26.83115 | 116.10177 | 38028 ft | 421 kts | 235° |
| 2026-05-05 13:07 | 26.79129 | 116.05344 | 38024 ft | 422 kts | 235° |
| 2026-05-05 13:07 | 26.75144 | 116.00508 | 38025 ft | 423 kts | 235° |
| 2026-05-05 13:08 | 26.71148 | 115.95666 | 38013 ft | 423 kts | 235° |
| 2026-05-05 13:08 | 26.67176 | 115.90855 | 38021 ft | 423 kts | 235° |
| 2026-05-05 13:09 | 26.63175 | 115.86012 | 38027 ft | 424 kts | 235° |
| 2026-05-05 13:09 | 26.59168 | 115.81169 | 38023 ft | 424 kts | 235° |
| 2026-05-05 13:10 | 26.55158 | 115.76330 | 38027 ft | 424 kts | 235° |
| 2026-05-05 13:10 | 26.51140 | 115.71496 | 38020 ft | 424 kts | 235° |
| 2026-05-05 13:11 | 26.47132 | 115.66661 | 38018 ft | 423 kts | 235° |
| 2026-05-05 13:11 | 26.43158 | 115.61878 | 38004 ft | 421 kts | 235° |
| 2026-05-05 13:12 | 26.39175 | 115.57094 | 37963 ft | 424 kts | 234° |
| 2026-05-05 13:12 | 26.35149 | 115.52309 | 38011 ft | 422 kts | 235° |
| 2026-05-05 13:13 | 26.31169 | 115.47499 | 38020 ft | 422 kts | 236° |
| 2026-05-05 13:13 | 26.27170 | 115.42690 | 37994 ft | 423 kts | 235° |
| 2026-05-05 13:14 | 26.23177 | 115.37896 | 38002 ft | 422 kts | 235° |
| 2026-05-05 13:14 | 26.19167 | 115.33108 | 38001 ft | 422 kts | 235° |
| 2026-05-05 13:15 | 26.15164 | 115.28333 | 38013 ft | 421 kts | 236° |
| 2026-05-05 13:15 | 26.11196 | 115.23602 | 38014 ft | 420 kts | 236° |
| 2026-05-05 13:16 | 26.07204 | 115.18845 | 38011 ft | 420 kts | 236° |
| 2026-05-05 13:16 | 26.03222 | 115.14096 | 37998 ft | 419 kts | 236° |
| 2026-05-05 13:17 | 25.99245 | 115.09361 | 38015 ft | 418 kts | 235° |
| 2026-05-05 13:17 | 25.95284 | 115.04650 | 38039 ft | 417 kts | 235° |
| 2026-05-05 13:18 | 25.91264 | 114.99916 | 38012 ft | 423 kts | 236° |
| 2026-05-05 13:18 | 25.87238 | 114.95122 | 38014 ft | 426 kts | 235° |
| 2026-05-05 13:19 | 25.83112 | 114.90365 | 38001 ft | 434 kts | 229° |
| 2026-05-05 13:19 | 25.80642 | 114.88422 | 37996 ft | 446 kts | 219° |
| 2026-05-05 13:19 | 25.77834 | 114.86865 | 38002 ft | 457 kts | 211° |
| 2026-05-05 13:20 | 25.74750 | 114.85817 | 38020 ft | 468 kts | 202° |
| 2026-05-05 13:20 | 25.71563 | 114.85017 | 38014 ft | 470 kts | 201° |
| 2026-05-05 13:20 | 25.65156 | 114.83529 | 38008 ft | 470 kts | 201° |
| 2026-05-05 13:21 | 25.58780 | 114.82012 | 38012 ft | 467 kts | 201° |
| 2026-05-05 13:21 | 25.52444 | 114.80460 | 37983 ft | 465 kts | 202° |
| 2026-05-05 13:22 | 25.46147 | 114.78898 | 38006 ft | 463 kts | 202° |
| 2026-05-05 13:22 | 25.39880 | 114.77341 | 38016 ft | 461 kts | 202° |
| 2026-05-05 13:23 | 25.33627 | 114.75791 | 38017 ft | 461 kts | 202° |
| 2026-05-05 13:23 | 25.27375 | 114.74244 | 37984 ft | 461 kts | 202° |
| 2026-05-05 13:24 | 25.21118 | 114.72700 | 38016 ft | 460 kts | 202° |
| 2026-05-05 13:24 | 25.14897 | 114.71167 | 38035 ft | 461 kts | 202° |
| 2026-05-05 13:25 | 25.08613 | 114.69619 | 38017 ft | 464 kts | 202° |
| 2026-05-05 13:25 | 25.02313 | 114.68066 | 38030 ft | 464 kts | 202° |
| 2026-05-05 13:26 | 24.95992 | 114.66510 | 38022 ft | 465 kts | 202° |
| 2026-05-05 13:26 | 24.89671 | 114.64955 | 38018 ft | 466 kts | 202° |
| 2026-05-05 13:27 | 24.83340 | 114.63409 | 38021 ft | 466 kts | 202° |
| 2026-05-05 13:27 | 24.77012 | 114.61876 | 38030 ft | 466 kts | 202° |
| 2026-05-05 13:28 | 24.70723 | 114.60231 | 38014 ft | 458 kts | 208° |
| 2026-05-05 13:28 | 24.67819 | 114.58902 | 38019 ft | 445 kts | 219° |
| 2026-05-05 13:28 | 24.65152 | 114.57213 | 38036 ft | 441 kts | 220° |
| 2026-05-05 13:29 | 24.59877 | 114.53770 | 38041 ft | 442 kts | 220° |
| 2026-05-05 13:29 | 24.54561 | 114.50363 | 38043 ft | 443 kts | 219° |
| 2026-05-05 13:30 | 24.49252 | 114.47008 | 38048 ft | 443 kts | 219° |
| 2026-05-05 13:30 | 24.43905 | 114.43639 | 38028 ft | 442 kts | 219° |
| 2026-05-05 13:31 | 24.38580 | 114.40272 | 38036 ft | 441 kts | 219° |
| 2026-05-05 13:31 | 24.34099 | 114.37488 | 38035 ft | 442 kts | 219° |
| 2026-05-05 13:32 | 24.28764 | 114.34160 | 38038 ft | 440 kts | 219° |
| 2026-05-05 13:32 | 24.23473 | 114.30797 | 38039 ft | 439 kts | 219° |
| 2026-05-05 13:33 | 24.18169 | 114.27539 | 38023 ft | 440 kts | 218° |
| 2026-05-05 13:33 | 24.12841 | 114.24231 | 38028 ft | 440 kts | 219° |
| 2026-05-05 13:34 | 24.07514 | 114.20914 | 38053 ft | 439 kts | 219° |
| 2026-05-05 13:34 | 24.02197 | 114.17598 | 38038 ft | 440 kts | 219° |
| 2026-05-05 13:35 | 23.96867 | 114.14277 | 38030 ft | 442 kts | 219° |
| 2026-05-05 13:35 | 23.91514 | 114.10943 | 38014 ft | 442 kts | 218° |
| 2026-05-05 13:36 | 23.86154 | 114.07658 | 38014 ft | 442 kts | 218° |
| 2026-05-05 13:36 | 23.80818 | 114.04331 | 38013 ft | 441 kts | 218° |
| 2026-05-05 13:37 | 23.75496 | 114.01039 | 37998 ft | 442 kts | 218° |
| 2026-05-05 13:37 | 23.70180 | 113.97727 | 38018 ft | 439 kts | 218° |
| 2026-05-05 13:38 | 23.64892 | 113.94426 | 38011 ft | 437 kts | 218° |
| 2026-05-05 13:38 | 23.59617 | 113.91148 | 38018 ft | 435 kts | 218° |
| 2026-05-05 13:39 | 23.54304 | 113.87865 | 38027 ft | 442 kts | 217° |
| 2026-05-05 13:39 | 23.48684 | 113.84934 | 38011 ft | 459 kts | 205° |
| 2026-05-05 13:40 | 23.42479 | 113.83067 | 38014 ft | 464 kts | 202° |
| 2026-05-05 13:40 | 23.36236 | 113.81265 | 38010 ft | 464 kts | 203° |
| 2026-05-05 13:41 | 23.30014 | 113.79415 | 38010 ft | 463 kts | 203° |
| 2026-05-05 13:41 | 23.23804 | 113.77543 | 38005 ft | 462 kts | 203° |
| 2026-05-05 13:42 | 23.17619 | 113.75676 | 38010 ft | 460 kts | 203° |
| 2026-05-05 13:42 | 23.11468 | 113.73820 | 37985 ft | 458 kts | 203° |
| 2026-05-05 13:43 | 23.05342 | 113.71977 | 37985 ft | 456 kts | 203° |
| 2026-05-05 13:43 | 22.99231 | 113.70136 | 38010 ft | 455 kts | 203° |
| 2026-05-05 13:44 | 22.93130 | 113.68302 | 38006 ft | 455 kts | 203° |
| 2026-05-05 13:44 | 22.87088 | 113.66485 | 38005 ft | 455 kts | 203° |
| 2026-05-05 13:45 | 22.80994 | 113.64634 | 37995 ft | 454 kts | 203° |
| 2026-05-05 13:45 | 22.74900 | 113.62780 | 37993 ft | 455 kts | 203° |
| 2026-05-05 13:46 | 22.68810 | 113.60931 | 38002 ft | 455 kts | 203° |
| 2026-05-05 13:46 | 22.62697 | 113.59077 | 38007 ft | 456 kts | 203° |
| 2026-05-05 13:47 | 22.56584 | 113.57225 | 38001 ft | 457 kts | 203° |
| 2026-05-05 13:47 | 22.50466 | 113.55368 | 38004 ft | 457 kts | 202° |
| 2026-05-05 13:48 | 22.44346 | 113.53488 | 38007 ft | 457 kts | 202° |
| 2026-05-05 13:48 | 22.38252 | 113.51615 | 38005 ft | 458 kts | 202° |
| 2026-05-05 13:49 | 22.32104 | 113.49731 | 38003 ft | 460 kts | 202° |
| 2026-05-05 13:49 | 22.25976 | 113.47777 | 37966 ft | 454 kts | 210° |
| 2026-05-05 13:50 | 22.23357 | 113.46029 | 38014 ft | 436 kts | 228° |
| 2026-05-05 13:50 | 22.21324 | 113.43673 | 38004 ft | 426 kts | 240° |
| 2026-05-05 13:50 | 22.19907 | 113.40920 | 38021 ft | 416 kts | 252° |
| 2026-05-05 13:50 | 22.18833 | 113.38029 | 38018 ft | 415 kts | 253° |
| 2026-05-05 13:51 | 22.16769 | 113.32200 | 38011 ft | 416 kts | 253° |
| 2026-05-05 13:51 | 22.14626 | 113.26393 | 38012 ft | 417 kts | 252° |
| 2026-05-05 13:52 | 22.12374 | 113.20611 | 38010 ft | 419 kts | 251° |
| 2026-05-05 13:52 | 22.09974 | 113.14879 | 38014 ft | 420 kts | 250° |
| 2026-05-05 13:53 | 22.07581 | 113.09140 | 38008 ft | 420 kts | 251° |
| 2026-05-05 13:53 | 22.05202 | 113.03390 | 38011 ft | 420 kts | 251° |
| 2026-05-05 13:54 | 22.02848 | 112.97638 | 38010 ft | 419 kts | 251° |
| 2026-05-05 13:54 | 22.00598 | 112.91841 | 38011 ft | 420 kts | 252° |
| 2026-05-05 13:55 | 21.98341 | 112.86036 | 38014 ft | 420 kts | 252° |
| 2026-05-05 13:55 | 21.96061 | 112.80231 | 38013 ft | 421 kts | 251° |
| 2026-05-05 13:56 | 21.93750 | 112.74470 | 38003 ft | 422 kts | 251° |
| 2026-05-05 13:56 | 21.91415 | 112.68674 | 38018 ft | 421 kts | 251° |
| 2026-05-05 13:57 | 21.89085 | 112.62875 | 38017 ft | 422 kts | 251° |
| 2026-05-05 13:57 | 21.86753 | 112.57069 | 38008 ft | 422 kts | 251° |
| 2026-05-05 13:58 | 21.84427 | 112.51269 | 38000 ft | 421 kts | 251° |
| 2026-05-05 13:58 | 21.82124 | 112.45474 | 37968 ft | 421 kts | 251° |
| 2026-05-05 13:59 | 21.78673 | 112.36798 | 37998 ft | 420 kts | 251° |
| 2026-05-05 14:00 | 21.75612 | 112.29117 | 38007 ft | 420 kts | 251° |
| 2026-05-05 14:00 | 21.72912 | 112.22360 | 38004 ft | 420 kts | 251° |
| 2026-05-05 14:01 | 21.70603 | 112.16587 | 37996 ft | 420 kts | 251° |
| 2026-05-05 14:01 | 21.68306 | 112.10848 | 37991 ft | 421 kts | 251° |
| 2026-05-05 14:02 | 21.65989 | 112.05070 | 37994 ft | 421 kts | 251° |
| 2026-05-05 14:02 | 21.63670 | 111.99289 | 38000 ft | 421 kts | 251° |
| 2026-05-05 14:03 | 21.61346 | 111.93501 | 37998 ft | 422 kts | 251° |
| 2026-05-05 14:03 | 21.59019 | 111.87714 | 37969 ft | 422 kts | 251° |
| 2026-05-05 14:04 | 21.56417 | 111.82037 | 37985 ft | 428 kts | 241° |
| 2026-05-05 14:04 | 21.52619 | 111.77029 | 37985 ft | 434 kts | 234° |
| 2026-05-05 14:05 | 21.48651 | 111.72121 | 37993 ft | 435 kts | 234° |
| 2026-05-05 14:05 | 21.44692 | 111.67189 | 37982 ft | 436 kts | 234° |
| 2026-05-05 14:06 | 21.40744 | 111.62233 | 37994 ft | 437 kts | 234° |
| 2026-05-05 14:06 | 21.36817 | 111.57296 | 37984 ft | 438 kts | 234° |
| 2026-05-05 14:07 | 21.32858 | 111.52323 | 37969 ft | 439 kts | 234° |
| 2026-05-05 14:07 | 21.28889 | 111.47345 | 37976 ft | 439 kts | 234° |
| 2026-05-05 14:08 | 21.24921 | 111.42372 | 37979 ft | 439 kts | 234° |
| 2026-05-05 14:08 | 21.20943 | 111.37390 | 37981 ft | 439 kts | 234° |
| 2026-05-05 14:09 | 21.16973 | 111.32420 | 37967 ft | 438 kts | 234° |
| 2026-05-05 14:09 | 21.13007 | 111.27463 | 37974 ft | 438 kts | 234° |
| 2026-05-05 14:10 | 21.09048 | 111.22521 | 37973 ft | 437 kts | 234° |
| 2026-05-05 14:10 | 21.05092 | 111.17583 | 37962 ft | 436 kts | 233° |
| 2026-05-05 14:11 | 21.01147 | 111.12663 | 37969 ft | 436 kts | 233° |
| 2026-05-05 14:11 | 20.97202 | 111.07746 | 37972 ft | 436 kts | 233° |
| 2026-05-05 14:12 | 20.93280 | 111.02856 | 37971 ft | 436 kts | 233° |
| 2026-05-05 14:12 | 20.89338 | 110.97922 | 37971 ft | 436 kts | 233° |
| 2026-05-05 14:13 | 20.85397 | 110.92987 | 37967 ft | 436 kts | 233° |
| 2026-05-05 14:13 | 20.81452 | 110.88053 | 37967 ft | 437 kts | 233° |
| 2026-05-05 14:14 | 20.77494 | 110.83108 | 37967 ft | 438 kts | 233° |
| 2026-05-05 14:14 | 20.73528 | 110.78158 | 37966 ft | 438 kts | 233° |
| 2026-05-05 14:15 | 20.69563 | 110.73211 | 37966 ft | 438 kts | 233° |
| 2026-05-05 14:15 | 20.65595 | 110.68269 | 37971 ft | 438 kts | 233° |
| 2026-05-05 14:16 | 20.61650 | 110.63361 | 37962 ft | 438 kts | 233° |
| 2026-05-05 14:16 | 20.57680 | 110.58425 | 37963 ft | 438 kts | 233° |
| 2026-05-05 14:17 | 20.53711 | 110.53490 | 37953 ft | 438 kts | 233° |
| 2026-05-05 14:17 | 20.50389 | 110.49365 | 37963 ft | 437 kts | 233° |
| 2026-05-05 14:18 | 20.46566 | 110.44405 | 37963 ft | 435 kts | 235° |
| 2026-05-05 14:18 | 20.42776 | 110.39380 | 37967 ft | 435 kts | 235° |
| 2026-05-05 14:19 | 20.38971 | 110.34366 | 37965 ft | 435 kts | 234° |
| 2026-05-05 14:19 | 20.35155 | 110.29361 | 37966 ft | 434 kts | 234° |
| 2026-05-05 14:20 | 20.31339 | 110.24363 | 37961 ft | 434 kts | 234° |
| 2026-05-05 14:20 | 20.27544 | 110.19359 | 37957 ft | 434 kts | 235° |
| 2026-05-05 14:21 | 20.23788 | 110.14334 | 37956 ft | 433 kts | 235° |
| 2026-05-05 14:21 | 20.20052 | 110.09339 | 37960 ft | 433 kts | 235° |
| 2026-05-05 14:22 | 20.16290 | 110.04321 | 37959 ft | 434 kts | 235° |
| 2026-05-05 14:22 | 20.12521 | 109.99302 | 37962 ft | 434 kts | 235° |
| 2026-05-05 14:23 | 20.08744 | 109.94278 | 37960 ft | 434 kts | 235° |
| 2026-05-05 14:23 | 20.04964 | 109.89254 | 37957 ft | 435 kts | 235° |
| 2026-05-05 14:24 | 20.01177 | 109.84225 | 37956 ft | 436 kts | 235° |
| 2026-05-05 14:24 | 19.97381 | 109.79189 | 37946 ft | 436 kts | 235° |
| 2026-05-05 14:25 | 19.93611 | 109.74192 | 37959 ft | 436 kts | 235° |
| 2026-05-05 14:25 | 19.89814 | 109.69161 | 37956 ft | 436 kts | 235° |
| 2026-05-05 14:26 | 19.86013 | 109.64131 | 37954 ft | 437 kts | 235° |
| 2026-05-05 14:26 | 19.82204 | 109.59095 | 37952 ft | 437 kts | 235° |
| 2026-05-05 14:27 | 19.78395 | 109.54062 | 37955 ft | 437 kts | 235° |
| 2026-05-05 14:27 | 19.74585 | 109.49032 | 37951 ft | 437 kts | 235° |
| 2026-05-05 14:28 | 19.70778 | 109.44012 | 37941 ft | 436 kts | 234° |
| 2026-05-05 14:28 | 19.67002 | 109.39037 | 37946 ft | 435 kts | 234° |
| 2026-05-05 14:29 | 19.63205 | 109.34035 | 37948 ft | 435 kts | 234° |
| 2026-05-05 14:29 | 19.59404 | 109.29034 | 37949 ft | 435 kts | 234° |
| 2026-05-05 14:30 | 19.55607 | 109.24042 | 37945 ft | 435 kts | 234° |
| 2026-05-05 14:30 | 19.51812 | 109.19058 | 37961 ft | 434 kts | 234° |
| 2026-05-05 14:31 | 19.47988 | 109.14097 | 37947 ft | 435 kts | 234° |
| 2026-05-05 14:31 | 19.44145 | 109.09143 | 37938 ft | 435 kts | 234° |
| 2026-05-05 14:32 | 19.40303 | 109.04189 | 37948 ft | 435 kts | 233° |
| 2026-05-05 14:32 | 19.36463 | 108.99232 | 37947 ft | 436 kts | 233° |
| 2026-05-05 14:33 | 19.32614 | 108.94268 | 37944 ft | 436 kts | 233° |
| 2026-05-05 14:33 | 19.28755 | 108.89294 | 37944 ft | 437 kts | 233° |
| 2026-05-05 14:34 | 19.24888 | 108.84315 | 37939 ft | 438 kts | 233° |
| 2026-05-05 14:34 | 19.21017 | 108.79323 | 37944 ft | 438 kts | 233° |
| 2026-05-05 14:35 | 19.17150 | 108.74331 | 37941 ft | 439 kts | 233° |
| 2026-05-05 14:35 | 19.13301 | 108.69364 | 37939 ft | 439 kts | 233° |
| 2026-05-05 14:36 | 19.09427 | 108.64367 | 37943 ft | 440 kts | 233° |
| 2026-05-05 14:36 | 19.05549 | 108.59373 | 37938 ft | 439 kts | 233° |
| 2026-05-05 14:37 | 19.01672 | 108.54386 | 37937 ft | 439 kts | 233° |
| 2026-05-05 14:37 | 18.97797 | 108.49406 | 37939 ft | 438 kts | 233° |
| 2026-05-05 14:38 | 18.93925 | 108.44432 | 37939 ft | 438 kts | 233° |
| 2026-05-05 14:38 | 18.90059 | 108.39469 | 37938 ft | 437 kts | 233° |
| 2026-05-05 14:39 | 18.86198 | 108.34518 | 37939 ft | 436 kts | 233° |
| 2026-05-05 14:39 | 18.82344 | 108.29577 | 37936 ft | 435 kts | 233° |
| 2026-05-05 14:40 | 18.78528 | 108.24690 | 37941 ft | 433 kts | 233° |
| 2026-05-05 14:40 | 18.74705 | 108.19799 | 37939 ft | 431 kts | 233° |
| 2026-05-05 14:41 | 18.70892 | 108.14925 | 37943 ft | 429 kts | 233° |
| 2026-05-05 14:41 | 18.67097 | 108.10078 | 37943 ft | 428 kts | 233° |
| 2026-05-05 14:42 | 18.63303 | 108.05235 | 37944 ft | 427 kts | 233° |
| 2026-05-05 14:42 | 18.59518 | 108.00407 | 37951 ft | 427 kts | 233° |
| 2026-05-05 14:43 | 18.55730 | 107.95580 | 37959 ft | 427 kts | 233° |
| 2026-05-05 14:43 | 18.51943 | 107.90753 | 37945 ft | 428 kts | 233° |
| 2026-05-05 14:44 | 18.48148 | 107.85924 | 37952 ft | 428 kts | 233° |
| 2026-05-05 14:44 | 18.44352 | 107.81096 | 37951 ft | 428 kts | 233° |
| 2026-05-05 14:45 | 18.40549 | 107.76262 | 37953 ft | 428 kts | 233° |
| 2026-05-05 14:45 | 18.36740 | 107.71426 | 37942 ft | 429 kts | 232° |
| 2026-05-05 14:46 | 18.33068 | 107.66531 | 37946 ft | 428 kts | 238° |
| 2026-05-05 14:46 | 18.29886 | 107.61250 | 37948 ft | 427 kts | 240° |
| 2026-05-05 14:47 | 18.26750 | 107.55931 | 37948 ft | 428 kts | 239° |
| 2026-05-05 14:47 | 18.23573 | 107.50629 | 37960 ft | 429 kts | 239° |
| 2026-05-05 14:48 | 18.20363 | 107.45323 | 37959 ft | 430 kts | 239° |
| 2026-05-05 14:48 | 18.17140 | 107.40007 | 37958 ft | 432 kts | 239° |
| 2026-05-05 14:49 | 18.13900 | 107.34666 | 37961 ft | 434 kts | 239° |
| 2026-05-05 14:49 | 18.10666 | 107.29339 | 37960 ft | 435 kts | 239° |
| 2026-05-05 14:50 | 18.07383 | 107.23934 | 37957 ft | 436 kts | 239° |
| 2026-05-05 14:50 | 18.04128 | 107.18595 | 37956 ft | 437 kts | 239° |
| 2026-05-05 14:51 | 18.00837 | 107.13216 | 37958 ft | 437 kts | 239° |
| 2026-05-05 14:51 | 17.97545 | 107.07834 | 37956 ft | 437 kts | 239° |
| 2026-05-05 14:52 | 17.94256 | 107.02463 | 37946 ft | 437 kts | 239° |
| 2026-05-05 14:52 | 17.90973 | 106.97100 | 37950 ft | 436 kts | 239° |
| 2026-05-05 14:53 | 17.87696 | 106.91752 | 37950 ft | 435 kts | 239° |
| 2026-05-05 14:53 | 17.84463 | 106.86431 | 37951 ft | 434 kts | 239° |
| 2026-05-05 14:54 | 17.81229 | 106.81091 | 37951 ft | 433 kts | 239° |
| 2026-05-05 14:54 | 17.77988 | 106.75755 | 37955 ft | 433 kts | 239° |
| 2026-05-05 14:55 | 17.74746 | 106.70422 | 37953 ft | 433 kts | 239° |
| 2026-05-05 14:55 | 17.71500 | 106.65086 | 37949 ft | 434 kts | 239° |
| 2026-05-05 14:56 | 17.68250 | 106.59749 | 37959 ft | 434 kts | 239° |
| 2026-05-05 14:56 | 17.64984 | 106.54403 | 37960 ft | 436 kts | 239° |
| 2026-05-05 14:57 | 17.61707 | 106.49052 | 37959 ft | 437 kts | 239° |
| 2026-05-05 14:57 | 17.58422 | 106.43689 | 37963 ft | 437 kts | 239° |
| 2026-05-05 14:58 | 17.55155 | 106.38356 | 37965 ft | 438 kts | 239° |
| 2026-05-05 14:58 | 17.51863 | 106.32988 | 37972 ft | 438 kts | 239° |
| 2026-05-05 14:59 | 17.48562 | 106.27607 | 37974 ft | 439 kts | 239° |
| 2026-05-05 14:59 | 17.45252 | 106.22212 | 37966 ft | 441 kts | 239° |
| 2026-05-05 15:00 | 17.42496 | 106.17725 | 37976 ft | 441 kts | 239° |
| 2026-05-05 15:00 | 17.38622 | 106.11425 | 37981 ft | 439 kts | 239° |
| 2026-05-05 15:01 | 17.35317 | 106.06043 | 37954 ft | 439 kts | 239° |
| 2026-05-05 15:01 | 17.32054 | 106.00657 | 37955 ft | 437 kts | 239° |
| 2026-05-05 15:02 | 17.28804 | 105.95289 | 37957 ft | 436 kts | 240° |
| 2026-05-05 15:02 | 17.25585 | 105.89975 | 37938 ft | 434 kts | 239° |
| 2026-05-05 15:03 | 17.22352 | 105.84649 | 37943 ft | 433 kts | 240° |
| 2026-05-05 15:03 | 17.19130 | 105.79346 | 37936 ft | 432 kts | 239° |
| 2026-05-05 15:04 | 17.15903 | 105.74045 | 37929 ft | 431 kts | 239° |
| 2026-05-05 15:04 | 17.12683 | 105.68750 | 37929 ft | 431 kts | 239° |
| 2026-05-05 15:05 | 17.07843 | 105.60804 | 37905 ft | 432 kts | 239° |
| 2026-05-05 15:06 | 17.04634 | 105.55542 | 37908 ft | 432 kts | 239° |
| 2026-05-05 15:06 | 17.01926 | 105.51105 | 37908 ft | 433 kts | 239° |
| 2026-05-05 15:07 | 16.98690 | 105.45799 | 37907 ft | 433 kts | 239° |
| 2026-05-05 15:07 | 16.95467 | 105.40523 | 37903 ft | 434 kts | 239° |
| 2026-05-05 15:08 | 16.92218 | 105.35212 | 37898 ft | 434 kts | 239° |
| 2026-05-05 15:08 | 16.88961 | 105.29890 | 37900 ft | 435 kts | 239° |
| 2026-05-05 15:09 | 16.85705 | 105.24576 | 37897 ft | 435 kts | 239° |
| 2026-05-05 15:09 | 16.82439 | 105.19259 | 37893 ft | 435 kts | 239° |
| 2026-05-05 15:10 | 16.79169 | 105.13944 | 37895 ft | 435 kts | 238° |
| 2026-05-05 15:10 | 16.75898 | 105.08631 | 37901 ft | 435 kts | 238° |
| 2026-05-05 15:11 | 16.72621 | 105.03311 | 37900 ft | 436 kts | 238° |
| 2026-05-05 15:11 | 16.69359 | 104.98018 | 37897 ft | 437 kts | 238° |
| 2026-05-05 15:12 | 16.66072 | 104.92687 | 37901 ft | 437 kts | 238° |
| 2026-05-05 15:12 | 16.62783 | 104.87357 | 37896 ft | 437 kts | 238° |
| 2026-05-05 15:13 | 16.59493 | 104.82030 | 37898 ft | 437 kts | 238° |
| 2026-05-05 15:13 | 16.56178 | 104.76711 | 37894 ft | 437 kts | 236° |
| 2026-05-05 15:14 | 16.52237 | 104.71879 | 37895 ft | 438 kts | 229° |
| 2026-05-05 15:14 | 16.48115 | 104.67211 | 37895 ft | 437 kts | 228° |
| 2026-05-05 15:15 | 16.44029 | 104.62516 | 37904 ft | 438 kts | 229° |
| 2026-05-05 15:15 | 16.39963 | 104.57793 | 37901 ft | 438 kts | 229° |
| 2026-05-05 15:16 | 16.35899 | 104.53059 | 37893 ft | 437 kts | 229° |
| 2026-05-05 15:16 | 16.31847 | 104.48367 | 37902 ft | 440 kts | 230° |
| 2026-05-05 15:17 | 16.27812 | 104.43595 | 37894 ft | 439 kts | 229° |
| 2026-05-05 15:17 | 16.23692 | 104.38908 | 37899 ft | 439 kts | 228° |
| 2026-05-05 15:18 | 16.19562 | 104.34213 | 37902 ft | 440 kts | 228° |
| 2026-05-05 15:18 | 16.15441 | 104.29509 | 37900 ft | 440 kts | 228° |
| 2026-05-05 15:19 | 16.11319 | 104.24801 | 37900 ft | 440 kts | 228° |
| 2026-05-05 15:19 | 16.07194 | 104.20092 | 37895 ft | 440 kts | 228° |
| 2026-05-05 15:20 | 16.03086 | 104.15373 | 37894 ft | 440 kts | 229° |
| 2026-05-05 15:20 | 15.99013 | 104.10616 | 37897 ft | 440 kts | 229° |
| 2026-05-05 15:21 | 15.94949 | 104.05862 | 37903 ft | 440 kts | 229° |
| 2026-05-05 15:21 | 15.90877 | 104.01114 | 37900 ft | 439 kts | 229° |
| 2026-05-05 15:22 | 15.86806 | 103.96375 | 37898 ft | 440 kts | 228° |
| 2026-05-05 15:22 | 15.82732 | 103.91633 | 37901 ft | 440 kts | 228° |
| 2026-05-05 15:23 | 15.78663 | 103.86902 | 37895 ft | 439 kts | 228° |
| 2026-05-05 15:23 | 15.74586 | 103.82168 | 37901 ft | 439 kts | 228° |
| 2026-05-05 15:24 | 15.70511 | 103.77437 | 37905 ft | 439 kts | 228° |
| 2026-05-05 15:24 | 15.66441 | 103.72716 | 37905 ft | 439 kts | 228° |
| 2026-05-05 15:25 | 15.62366 | 103.67991 | 37903 ft | 439 kts | 228° |
| 2026-05-05 15:25 | 15.58313 | 103.63295 | 37907 ft | 439 kts | 228° |
| 2026-05-05 15:26 | 15.54230 | 103.58568 | 37903 ft | 440 kts | 228° |
| 2026-05-05 15:26 | 15.50142 | 103.53839 | 37910 ft | 440 kts | 228° |
| 2026-05-05 15:27 | 15.46044 | 103.49099 | 37913 ft | 442 kts | 228° |
| 2026-05-05 15:27 | 15.41931 | 103.44344 | 37915 ft | 444 kts | 228° |
| 2026-05-05 15:28 | 15.37799 | 103.39571 | 37916 ft | 446 kts | 228° |
| 2026-05-05 15:28 | 15.33671 | 103.34805 | 37916 ft | 447 kts | 228° |
| 2026-05-05 15:29 | 15.29506 | 103.30001 | 37910 ft | 449 kts | 228° |
| 2026-05-05 15:29 | 15.25326 | 103.25183 | 37913 ft | 449 kts | 228° |
| 2026-05-05 15:30 | 15.21148 | 103.20369 | 37912 ft | 449 kts | 228° |
| 2026-05-05 15:30 | 15.16973 | 103.15556 | 37922 ft | 449 kts | 228° |
| 2026-05-05 15:31 | 15.12794 | 103.10750 | 37918 ft | 449 kts | 229° |
| 2026-05-05 15:31 | 15.08656 | 103.05988 | 37915 ft | 447 kts | 229° |
| 2026-05-05 15:32 | 15.04394 | 103.01325 | 37910 ft | 446 kts | 221° |
| 2026-05-05 15:32 | 14.99214 | 102.97797 | 37926 ft | 446 kts | 210° |
| 2026-05-05 15:33 | 14.93830 | 102.94593 | 37912 ft | 447 kts | 211° |
| 2026-05-05 15:33 | 14.88646 | 102.91069 | 37911 ft | 446 kts | 225° |
| 2026-05-05 15:33 | 14.86657 | 102.88631 | 37933 ft | 444 kts | 237° |
| 2026-05-05 15:34 | 14.85225 | 102.85820 | 37915 ft | 442 kts | 251° |
| 2026-05-05 15:34 | 14.83364 | 102.79765 | 37925 ft | 441 kts | 253° |
| 2026-05-05 15:35 | 14.81587 | 102.73691 | 37922 ft | 442 kts | 253° |
| 2026-05-05 15:35 | 14.79766 | 102.67617 | 37929 ft | 443 kts | 253° |
| 2026-05-05 15:36 | 14.77911 | 102.61548 | 37928 ft | 443 kts | 253° |
| 2026-05-05 15:36 | 14.76046 | 102.55490 | 37427 ft | 450 kts | 253° |
| 2026-05-05 15:36 | 14.75100 | 102.52421 | 36897 ft | 447 kts | 253° |
| 2026-05-05 15:37 | 14.74156 | 102.49363 | 36348 ft | 446 kts | 253° |
| 2026-05-05 15:37 | 14.73216 | 102.46316 | 35894 ft | 443 kts | 253° |
| 2026-05-05 15:37 | 14.72284 | 102.43295 | 35500 ft | 439 kts | 253° |
| 2026-05-05 15:37 | 14.71360 | 102.40299 | 35107 ft | 436 kts | 252° |
| 2026-05-05 15:38 | 14.70445 | 102.37331 | 34715 ft | 432 kts | 252° |
| 2026-05-05 15:38 | 14.69534 | 102.34384 | 34310 ft | 429 kts | 252° |
| 2026-05-05 15:38 | 14.68629 | 102.31455 | 33894 ft | 427 kts | 252° |
| 2026-05-05 15:38 | 14.67729 | 102.28543 | 33437 ft | 424 kts | 252° |
| 2026-05-05 15:39 | 14.66834 | 102.25650 | 32993 ft | 422 kts | 252° |
| 2026-05-05 15:39 | 14.65945 | 102.22775 | 32580 ft | 419 kts | 252° |
| 2026-05-05 15:39 | 14.65061 | 102.19920 | 32173 ft | 416 kts | 252° |
| 2026-05-05 15:39 | 14.64182 | 102.17082 | 31742 ft | 414 kts | 253° |
| 2026-05-05 15:40 | 14.63308 | 102.14261 | 31333 ft | 412 kts | 253° |
| 2026-05-05 15:40 | 14.62439 | 102.11455 | 30942 ft | 409 kts | 253° |
| 2026-05-05 15:40 | 14.61573 | 102.08664 | 30540 ft | 407 kts | 253° |
| 2026-05-05 15:40 | 14.60708 | 102.05878 | 30126 ft | 406 kts | 253° |
| 2026-05-05 15:41 | 14.59848 | 102.03105 | 29710 ft | 404 kts | 252° |
| 2026-05-05 15:41 | 14.58995 | 102.00353 | 29284 ft | 401 kts | 253° |
| 2026-05-05 15:41 | 14.58158 | 101.97657 | 28873 ft | 398 kts | 252° |
| 2026-05-05 15:41 | 14.57315 | 101.94945 | 28451 ft | 395 kts | 252° |
| 2026-05-05 15:42 | 14.56476 | 101.92257 | 28030 ft | 392 kts | 252° |
| 2026-05-05 15:42 | 14.55539 | 101.89621 | 27621 ft | 390 kts | 249° |
| 2026-05-05 15:42 | 14.54517 | 101.87038 | 27228 ft | 388 kts | 248° |
| 2026-05-05 15:42 | 14.53470 | 101.84483 | 26839 ft | 385 kts | 248° |
| 2026-05-05 15:43 | 14.52425 | 101.81945 | 26447 ft | 383 kts | 248° |
| 2026-05-05 15:43 | 14.51391 | 101.79418 | 26070 ft | 381 kts | 248° |
| 2026-05-05 15:43 | 14.50371 | 101.76906 | 25694 ft | 378 kts | 248° |
| 2026-05-05 15:43 | 14.49361 | 101.74404 | 25325 ft | 376 kts | 248° |
| 2026-05-05 15:44 | 14.48362 | 101.71918 | 24962 ft | 374 kts | 248° |
| 2026-05-05 15:44 | 14.47369 | 101.69443 | 24595 ft | 372 kts | 248° |
| 2026-05-05 15:44 | 14.46383 | 101.66983 | 24236 ft | 370 kts | 248° |
| 2026-05-05 15:44 | 14.45402 | 101.64535 | 23878 ft | 368 kts | 248° |
| 2026-05-05 15:45 | 14.44424 | 101.62097 | 23519 ft | 367 kts | 248° |
| 2026-05-05 15:45 | 14.43450 | 101.59670 | 23118 ft | 365 kts | 248° |
| 2026-05-05 15:45 | 14.42481 | 101.57254 | 22741 ft | 362 kts | 248° |
| 2026-05-05 15:45 | 14.41520 | 101.54862 | 22359 ft | 360 kts | 248° |
| 2026-05-05 15:46 | 14.40564 | 101.52482 | 21971 ft | 358 kts | 248° |
| 2026-05-05 15:46 | 14.39613 | 101.50114 | 21600 ft | 356 kts | 248° |
| 2026-05-05 15:46 | 14.38668 | 101.47764 | 21231 ft | 354 kts | 248° |
| 2026-05-05 15:46 | 14.37729 | 101.45427 | 20855 ft | 352 kts | 248° |
| 2026-05-05 15:47 | 14.36793 | 101.43099 | 20482 ft | 351 kts | 248° |
| 2026-05-05 15:47 | 14.36175 | 101.41561 | 20245 ft | 349 kts | 248° |
| 2026-05-05 15:47 | 14.34934 | 101.38479 | 19791 ft | 347 kts | 248° |
| 2026-05-05 15:47 | 14.34014 | 101.36190 | 19446 ft | 345 kts | 248° |
| 2026-05-05 15:48 | 14.33108 | 101.33941 | 19101 ft | 343 kts | 248° |
| 2026-05-05 15:48 | 14.32193 | 101.31672 | 18760 ft | 342 kts | 248° |
| 2026-05-05 15:48 | 14.31282 | 101.29411 | 18419 ft | 340 kts | 248° |
| 2026-05-05 15:48 | 14.30224 | 101.27238 | 18065 ft | 339 kts | 239° |
| 2026-05-05 15:49 | 14.28924 | 101.25214 | 17667 ft | 338 kts | 235° |
| 2026-05-05 15:49 | 14.27563 | 101.23246 | 17306 ft | 336 kts | 234° |
| 2026-05-05 15:49 | 14.26202 | 101.21297 | 16956 ft | 334 kts | 234° |
| 2026-05-05 15:49 | 14.24858 | 101.19352 | 16605 ft | 332 kts | 235° |
| 2026-05-05 15:50 | 14.23532 | 101.17410 | 16252 ft | 330 kts | 235° |
| 2026-05-05 15:50 | 14.22219 | 101.15469 | 15906 ft | 329 kts | 235° |
| 2026-05-05 15:50 | 14.20920 | 101.13537 | 15572 ft | 327 kts | 235° |
| 2026-05-05 15:50 | 14.19631 | 101.11613 | 15243 ft | 325 kts | 235° |
| 2026-05-05 15:51 | 14.18352 | 101.09700 | 14923 ft | 323 kts | 235° |
| 2026-05-05 15:51 | 14.17080 | 101.07795 | 14596 ft | 322 kts | 235° |
| 2026-05-05 15:51 | 14.15814 | 101.05900 | 14274 ft | 320 kts | 235° |
| 2026-05-05 15:51 | 14.14550 | 101.04005 | 13959 ft | 319 kts | 235° |
| 2026-05-05 15:52 | 14.13307 | 101.02143 | 13539 ft | 313 kts | 235° |
| 2026-05-05 15:52 | 14.12072 | 101.00295 | 12920 ft | 313 kts | 235° |
| 2026-05-05 15:52 | 14.10858 | 100.98477 | 12385 ft | 311 kts | 235° |
| 2026-05-05 15:52 | 14.09647 | 100.96665 | 12042 ft | 302 kts | 235° |
| 2026-05-05 15:53 | 14.08472 | 100.94906 | 11685 ft | 295 kts | 235° |
| 2026-05-05 15:53 | 14.07315 | 100.93174 | 11227 ft | 292 kts | 234° |
| 2026-05-05 15:53 | 14.06167 | 100.91457 | 10746 ft | 291 kts | 234° |
| 2026-05-05 15:53 | 14.05023 | 100.89745 | 10293 ft | 289 kts | 234° |
| 2026-05-05 15:54 | 14.04255 | 100.88598 | 10041 ft | 286 kts | 234° |
| 2026-05-05 15:54 | 14.03164 | 100.86969 | 9858 ft | 275 kts | 234° |
| 2026-05-05 15:54 | 14.02067 | 100.85398 | 9526 ft | 267 kts | 226° |
| 2026-05-05 15:54 | 14.00563 | 100.84363 | 9188 ft | 259 kts | 199° |
| 2026-05-05 15:55 | 13.98851 | 100.83868 | 8819 ft | 254 kts | 193° |
| 2026-05-05 15:55 | 13.97130 | 100.83433 | 8395 ft | 254 kts | 193° |
| 2026-05-05 15:55 | 13.95420 | 100.82996 | 7994 ft | 253 kts | 193° |
| 2026-05-05 15:55 | 13.93735 | 100.82560 | 7510 ft | 246 kts | 193° |
| 2026-05-05 15:56 | 13.92071 | 100.82126 | 6891 ft | 246 kts | 193° |
| 2026-05-05 15:56 | 13.90445 | 100.81701 | 6534 ft | 234 kts | 193° |
| 2026-05-05 15:56 | 13.88856 | 100.81283 | 5785 ft | 241 kts | 194° |
| 2026-05-05 15:56 | 13.87222 | 100.80847 | 5089 ft | 244 kts | 193° |
| 2026-05-05 15:57 | 13.85572 | 100.80412 | 4381 ft | 247 kts | 193° |
| 2026-05-05 15:57 | 13.83907 | 100.79975 | 3662 ft | 248 kts | 193° |
| 2026-05-05 15:57 | 13.82223 | 100.79535 | 2956 ft | 248 kts | 193° |
| 2026-05-05 15:57 | 13.80555 | 100.79095 | 2357 ft | 244 kts | 193° |
| 2026-05-05 15:58 | 13.78964 | 100.78677 | 2016 ft | 229 kts | 193° |
| 2026-05-05 15:58 | 13.77464 | 100.78283 | 1719 ft | 216 kts | 193° |
| 2026-05-05 15:58 | 13.76075 | 100.77919 | 1440 ft | 203 kts | 193° |
| 2026-05-05 15:58 | 13.74742 | 100.77568 | 1195 ft | 188 kts | 193° |
| 2026-05-05 15:59 | 13.73518 | 100.77245 | 953 ft | 176 kts | 193° |
| 2026-05-05 15:59 | 13.72390 | 100.76950 | 743 ft | 164 kts | 194° |
| 2026-05-05 15:59 | 13.71319 | 100.76668 | 534 ft | 153 kts | 195° |
| 2026-05-05 15:59 | 13.70311 | 100.76404 | 334 ft | 147 kts | 195° |
| 2026-05-05 16:00 | 13.69332 | 100.76148 | 102 ft | 142 kts | 196° |
| 2026-05-05 16:00 | 13.68419 | 100.75905 | 19 ft | 126 kts | 195° |
| 2026-05-05 16:00 | 13.67666 | 100.75708 | 10 ft | 92 kts | 193° |
| 2026-05-05 16:00 | 13.67266 | 100.75590 | 12 ft | 33 kts | 207° |
| 2026-05-05 16:01 | 13.67098 | 100.75452 | 13 ft | 28 kts | 229° |
| 2026-05-05 16:01 | 13.67159 | 100.75383 | 12 ft | 17 kts | 14° |
| 2026-05-05 16:01 | 13.67286 | 100.75417 | 12 ft | 21 kts | 14° |
| 2026-05-05 16:01 | 13.67439 | 100.75457 | 12 ft | 25 kts | 14° |
| 2026-05-05 16:02 | 13.67618 | 100.75504 | 12 ft | 28 kts | 14° |
| 2026-05-05 16:02 | 13.67799 | 100.75553 | 12 ft | 26 kts | 14° |
| 2026-05-05 16:02 | 13.67967 | 100.75597 | 12 ft | 24 kts | 14° |
| 2026-05-05 16:02 | 13.68125 | 100.75638 | 12 ft | 23 kts | 14° |
| 2026-05-05 16:03 | 13.68276 | 100.75677 | 12 ft | 22 kts | 14° |
| 2026-05-05 16:03 | 13.68422 | 100.75701 | 12 ft | 21 kts | 339° |
| 2026-05-05 16:03 | 13.68476 | 100.75573 | 14 ft | 20 kts | 284° |
| 2026-05-05 16:03 | 13.68510 | 100.75437 | 12 ft | 19 kts | 284° |
| 2026-05-05 16:04 | 13.68542 | 100.75307 | 12 ft | 19 kts | 284° |
| 2026-05-05 16:04 | 13.68575 | 100.75180 | 14 ft | 18 kts | 291° |
| 2026-05-05 16:04 | 13.68680 | 100.75156 | 12 ft | 17 kts | 14° |
| 2026-05-05 16:04 | 13.68756 | 100.75200 | 13 ft | 9 kts | 100° |
| 2026-05-05 16:05 | 13.68743 | 100.75252 | 12 ft | 4 kts | 104° |
| 2026-05-05 16:05 | 13.68742 | 100.75257 | 12 ft | 0 kts | 104° |